Henderson, NV (89012)

6:25 PM PST on December 25, 2014 (GMT -0800)
Green Valley Ranch | Change Station
CLOSE
Current Station
Personal Weather Station
Location: Henderson, NV
Elevation: 2162 ft
Nearby Weather Stations

Elev 2162 ft 36.02 °N, 115.07 °W | Updated 3 seconds ago

Partly Cloudy
Partly Cloudy
43.5 °F
Feels Like 44 °F
N
0.0
Wind Variable Wind from North
Gusts 0.0 mph

Today
High -- | Low -- °F
--% Chance of Precip.
Yesterday
High -- | Low -- °F
Precip. -- in
6:48 AM 4:31 PM
Waxing Crescent, 21% visible
Pressure 29.88 in
Visibility 10.0 miles
Clouds Clear
Windchill 44 °F
Dew Point 16 °F
Humidity 32%
Rainfall 0.00 in
Snow Depth Not available.
UV 0 out of 12
Pollen 2.90 out of 12
Air Quality Not available.
Flu Activity Not available.
METAR KHND 260156Z 33013G18KT 10SM CLR 07/M09 A2986 RMK AO2 SLP117 T00671094

More Conditions Fewer Conditions

Pressure 29.88 in
Visibility 10.0 miles
Clouds Clear
Windchill 44 °F
Dew Point 16 °F
Humidity 32%
Rainfall 0.00 in
Snow Depth Not available.
UV 0 out of 12
Pollen 2.90 out of 12
Air Quality Not available.
Flu Activity Not available.
METAR KHND 260156Z 33013G18KT 10SM CLR 07/M09 A2986 RMK AO2 SLP117 T00671094

More Conditions Fewer Conditions

10-Day Weather Forecast

Almanac

Astronomy

Dec. 25, 2014 Rise Set
Actual Time
Civil Twilight
Nautical Twilight
Astronomical Twilight
Moon
Length of Visible Light
Length of Day
Tomorrow will be .
, % of the Moon is Illuminated

Today's Extremes

State Highs State Lows

Community

WunderPhotos

Upload Photos

1,780,507 photos uploaded!

WunderBlogs® & News

Nearby

Air Quality

  Air Quality AQ Index Pollutant
Not available.

Snow Depth

Station Depth Elevation

Earthquake Activity

City Distance Mag. Time & Date
Minimum magnitude displayed is 2.5.

Coastal Water Temperatures

Place Temperature

Nearby Weather Stations